createdAt,value
2019-01-20T00:00:05.381Z,12.80
2019-01-20T00:02:32.849Z,11.00
2019-01-20T00:05:00.433Z,11.43
2019-01-20T00:07:27.923Z,12.83
2019-01-20T00:09:55.412Z,12.20
2019-01-20T00:12:22.946Z,11.93
2019-01-20T00:14:50.403Z,11.00
2019-01-20T00:17:17.888Z,12.63
2019-01-20T00:19:45.377Z,12.73
2019-01-20T00:22:12.851Z,12.03
2019-01-20T00:24:40.366Z,13.20
2019-01-20T00:27:07.912Z,11.20
2019-01-20T00:29:35.377Z,12.47
2019-01-20T00:32:02.887Z,11.18
2019-01-20T00:34:30.356Z,10.60
2019-01-20T00:36:57.839Z,12.10
2019-01-20T00:39:25.332Z,11.90
2019-01-20T00:41:52.861Z,12.13
2019-01-20T00:44:20.342Z,10.93
2019-01-20T00:46:47.839Z,11.83
2019-01-20T00:49:15.298Z,11.53
2019-01-20T00:51:42.776Z,11.17
2019-01-20T00:54:10.544Z,13.30
2019-01-20T00:56:38.008Z,11.53
2019-01-20T00:59:05.477Z,11.13
2019-01-20T01:01:33.059Z,11.30
2019-01-20T01:04:00.540Z,11.80
2019-01-20T01:06:27.999Z,11.50
2019-01-20T01:08:55.498Z,11.43
2019-01-20T01:11:22.968Z,12.60
2019-01-20T01:13:50.437Z,14.00
2019-01-20T01:16:17.937Z,11.53
2019-01-20T01:18:45.443Z,14.07
2019-01-20T01:21:12.995Z,12.77
2019-01-20T01:23:40.748Z,12.00
2019-01-20T01:26:08.216Z,13.33
2019-01-20T01:28:35.751Z,15.03
2019-01-20T01:31:03.328Z,13.00
2019-01-20T01:33:30.793Z,14.33
2019-01-20T01:35:58.257Z,13.23
2019-01-20T01:38:25.743Z,13.83
2019-01-20T01:40:53.148Z,11.90
2019-01-20T01:43:20.606Z,12.97
2019-01-20T01:45:48.117Z,13.13
2019-01-20T01:48:15.585Z,13.50
2019-01-20T01:50:43.060Z,12.43
2019-01-20T01:53:10.535Z,12.90
2019-01-20T01:55:38.003Z,14.17
2019-01-20T01:58:05.481Z,13.20
2019-01-20T02:00:33.062Z,13.80
2019-01-20T02:03:00.522Z,14.03
2019-01-20T02:05:27.996Z,14.77
2019-01-20T02:07:55.485Z,13.50
2019-01-20T02:10:23.028Z,15.20
2019-01-20T02:12:50.502Z,12.97
2019-01-20T02:15:18.980Z,14.40
2019-01-20T02:17:46.442Z,13.73
2019-01-20T02:20:18.375Z,12.30
2019-01-20T02:22:45.934Z,12.10
2019-01-20T02:25:13.832Z,11.67
2019-01-20T02:27:41.396Z,13.60
2019-01-20T02:30:10.398Z,13.90
2019-01-20T02:32:37.880Z,14.43
2019-01-20T02:35:05.448Z,15.08
2019-01-20T02:37:32.956Z,15.13
2019-01-20T02:40:00.464Z,15.63
2019-01-20T02:42:28.044Z,14.28
2019-01-20T02:44:55.560Z,14.63
2019-01-20T02:47:23.062Z,15.87
2019-01-20T02:49:50.539Z,14.50
2019-01-20T02:52:17.988Z,14.47
2019-01-20T02:54:45.540Z,16.27
2019-01-20T02:57:13.012Z,15.13
2019-01-20T02:59:40.497Z,14.25
2019-01-20T03:02:08.027Z,15.05
2019-01-20T03:04:35.499Z,15.88
2019-01-20T03:07:03.055Z,13.83
2019-01-20T03:09:30.513Z,15.53
2019-01-20T03:12:03.492Z,16.10
2019-01-20T03:14:27.120Z,15.83
2019-01-20T03:16:54.627Z,15.75
2019-01-20T03:19:22.100Z,16.70
2019-01-20T03:21:49.566Z,16.03
2019-01-20T03:24:17.079Z,16.30
2019-01-20T03:26:44.543Z,15.73
2019-01-20T03:29:12.090Z,15.85
2019-01-20T03:31:39.593Z,15.65
2019-01-20T03:34:07.063Z,15.95
2019-01-20T03:36:34.521Z,16.40
2019-01-20T03:39:02.019Z,15.13
2019-01-20T03:41:29.488Z,17.27
2019-01-20T03:43:56.924Z,17.73
2019-01-20T03:46:24.384Z,16.07
2019-01-20T03:48:51.856Z,17.10
2019-01-20T03:51:19.456Z,15.47
2019-01-20T03:53:46.944Z,17.00
2019-01-20T03:56:14.424Z,17.03
2019-01-20T03:58:41.914Z,15.27
2019-01-20T04:01:09.401Z,15.65
2019-01-20T04:03:36.875Z,15.00
2019-01-20T04:06:04.485Z,15.50
2019-01-20T04:08:31.961Z,15.10
2019-01-20T04:10:59.432Z,15.43
2019-01-20T04:13:26.924Z,15.83
2019-01-20T04:15:54.390Z,15.80
2019-01-20T04:18:21.856Z,16.50
2019-01-20T04:20:49.362Z,15.53
2019-01-20T04:23:16.843Z,15.43
2019-01-20T04:25:45.960Z,15.40
2019-01-20T04:28:13.460Z,16.25
2019-01-20T04:30:40.961Z,15.15
2019-01-20T04:33:08.432Z,16.13
2019-01-20T04:35:35.919Z,15.05
2019-01-20T04:38:03.420Z,15.90
2019-01-20T04:40:30.883Z,14.77
2019-01-20T04:42:58.399Z,13.88
2019-01-20T04:45:25.948Z,17.10
2019-01-20T04:47:53.415Z,17.32
2019-01-20T04:50:21.911Z,16.42
2019-01-20T04:52:49.381Z,16.02
2019-01-20T04:55:17.164Z,16.07
2019-01-20T04:57:48.800Z,17.67
2019-01-20T05:00:17.545Z,15.43
2019-01-20T05:02:45.003Z,17.25
2019-01-20T05:05:12.623Z,14.70
2019-01-20T05:07:40.083Z,16.93
2019-01-20T05:10:09.061Z,15.75
2019-01-20T05:12:37.784Z,14.63
2019-01-20T05:15:07.034Z,16.57
2019-01-20T05:17:34.505Z,14.65
2019-01-20T05:20:02.012Z,15.88
2019-01-20T05:22:29.487Z,15.70
2019-01-20T05:24:56.960Z,16.70
2019-01-20T05:27:24.469Z,15.68
2019-01-20T05:29:52.016Z,13.95
2019-01-20T05:32:19.546Z,14.70
2019-01-20T05:34:46.990Z,15.00
2019-01-20T05:37:14.474Z,13.90
2019-01-20T05:39:41.997Z,16.05
2019-01-20T05:42:09.488Z,15.50
2019-01-20T05:44:36.964Z,15.00
2019-01-20T05:47:04.549Z,16.02
2019-01-20T05:49:32.027Z,16.00
2019-01-20T05:51:59.504Z,16.05
2019-01-20T05:54:27.023Z,15.20
2019-01-20T05:56:54.508Z,14.78
2019-01-20T05:59:21.990Z,14.38
2019-01-20T06:01:49.584Z,16.60
2019-01-20T06:04:17.077Z,14.80
2019-01-20T06:06:44.562Z,16.65
2019-01-20T06:09:12.084Z,15.00
2019-01-20T06:11:39.549Z,15.10
2019-01-20T06:14:07.026Z,14.53
2019-01-20T06:16:34.527Z,14.43
2019-01-20T06:19:01.936Z,14.07
2019-01-20T06:21:29.422Z,14.18
2019-01-20T06:23:56.924Z,14.10
2019-01-20T06:26:24.399Z,14.25
2019-01-20T06:28:51.975Z,13.78
2019-01-20T06:31:19.482Z,14.25
2019-01-20T06:33:47.004Z,13.90
2019-01-20T06:36:14.512Z,13.98
2019-01-20T06:38:41.989Z,13.85
2019-01-20T06:41:09.464Z,14.15
2019-01-20T06:43:37.009Z,14.65
2019-01-20T06:46:04.497Z,13.20
2019-01-20T06:48:32.000Z,14.80
2019-01-20T06:50:59.515Z,14.87
2019-01-20T06:53:27.112Z,16.17
2019-01-20T06:55:54.662Z,14.18
2019-01-20T06:58:22.146Z,13.15
2019-01-20T07:00:49.652Z,13.30
2019-01-20T07:03:17.148Z,14.68
2019-01-20T07:05:44.631Z,15.20
2019-01-20T07:08:12.150Z,13.68
2019-01-20T07:10:39.635Z,14.28
2019-01-20T07:13:10.047Z,12.73
2019-01-20T07:15:36.287Z,13.50
2019-01-20T07:18:03.882Z,14.65
2019-01-20T07:20:31.395Z,13.18
2019-01-20T07:22:58.879Z,13.50
2019-01-20T07:25:26.358Z,13.78
2019-01-20T07:27:53.968Z,13.40
2019-01-20T07:30:21.863Z,13.60
2019-01-20T07:32:49.346Z,14.13
2019-01-20T07:35:17.170Z,14.58
2019-01-20T07:37:44.644Z,13.90
2019-01-20T07:40:13.241Z,14.03
2019-01-20T07:42:40.749Z,15.08
2019-01-20T07:45:09.538Z,14.98
2019-01-20T07:47:37.084Z,13.55
2019-01-20T07:50:06.133Z,15.43
2019-01-20T07:52:33.617Z,15.83
2019-01-20T07:55:01.177Z,15.10
2019-01-20T07:57:28.761Z,17.20
2019-01-20T07:59:56.246Z,18.52
2019-01-20T08:02:23.724Z,18.80
2019-01-20T08:04:51.227Z,18.65
2019-01-20T08:07:18.733Z,19.27
2019-01-20T08:09:46.220Z,19.42
2019-01-20T08:12:13.731Z,16.52
2019-01-20T08:14:41.282Z,18.15
2019-01-20T08:17:08.749Z,16.85
2019-01-20T08:19:36.269Z,17.73
2019-01-20T08:22:03.934Z,18.05
2019-01-20T08:24:31.425Z,18.95
2019-01-20T08:26:59.014Z,17.55
2019-01-20T08:29:26.489Z,16.62
2019-01-20T08:31:53.978Z,14.85
2019-01-20T08:34:21.567Z,16.77
2019-01-20T08:36:49.062Z,18.02
2019-01-20T08:39:16.604Z,16.27
2019-01-20T08:41:44.388Z,16.83
2019-01-20T08:44:11.927Z,13.77
2019-01-20T08:46:40.979Z,16.73
2019-01-20T08:49:08.497Z,16.17
2019-01-20T08:51:36.003Z,12.60
2019-01-20T08:54:03.552Z,13.40
2019-01-20T08:56:31.099Z,12.80
2019-01-20T08:58:58.616Z,14.67
2019-01-20T09:01:26.180Z,16.17
2019-01-20T09:03:53.650Z,17.70
2019-01-20T09:06:21.171Z,16.87
2019-01-20T09:08:48.658Z,16.97
2019-01-20T09:11:16.211Z,16.47
2019-01-20T09:13:43.688Z,16.33
2019-01-20T09:16:11.247Z,17.67
2019-01-20T09:18:38.723Z,15.57
2019-01-20T09:21:06.194Z,16.50
2019-01-20T09:23:33.698Z,16.00
2019-01-20T09:26:01.180Z,16.87
2019-01-20T09:28:28.660Z,16.10
2019-01-20T09:30:56.169Z,11.33
2019-01-20T09:33:24.760Z,10.00
2019-01-20T09:35:52.541Z,8.60
2019-01-20T09:38:20.074Z,9.30
2019-01-20T09:40:47.591Z,9.53
2019-01-20T09:43:15.070Z,9.47
2019-01-20T09:45:42.930Z,10.67
2019-01-20T09:48:10.515Z,8.67
2019-01-20T09:50:38.057Z,9.67
2019-01-20T09:53:06.487Z,10.43
2019-01-20T09:55:34.225Z,12.50
2019-01-20T09:58:01.727Z,11.90
2019-01-20T10:00:30.680Z,14.90
2019-01-20T10:02:58.187Z,14.93
2019-01-20T10:05:25.755Z,13.77
2019-01-20T10:07:53.288Z,14.33
2019-01-20T10:10:21.824Z,14.03
2019-01-20T10:12:49.379Z,13.67
2019-01-20T10:15:17.183Z,11.87
2019-01-20T10:17:44.686Z,11.50
2019-01-20T10:20:13.641Z,12.07
2019-01-20T10:22:41.135Z,10.97
2019-01-20T10:25:15.047Z,11.43
2019-01-20T10:27:37.838Z,12.10
2019-01-20T10:30:09.978Z,12.30
2019-01-20T10:32:37.478Z,12.77
2019-01-20T10:35:06.208Z,11.67
2019-01-20T10:37:34.396Z,11.50
2019-01-20T10:40:01.908Z,12.07
2019-01-20T10:42:29.388Z,12.80
2019-01-20T10:44:56.855Z,12.50
2019-01-20T10:47:24.357Z,13.73
2019-01-20T10:49:51.835Z,12.43
2019-01-20T10:52:19.395Z,11.13
2019-01-20T10:54:46.909Z,11.40
2019-01-20T10:57:14.471Z,10.23
2019-01-20T10:59:41.968Z,9.20
2019-01-20T11:02:09.808Z,8.77
2019-01-20T11:04:37.366Z,11.20
2019-01-20T11:07:04.839Z,9.10
2019-01-20T11:09:32.415Z,9.50
2019-01-20T11:11:59.881Z,9.13
2019-01-20T11:14:27.362Z,9.63
2019-01-20T11:16:54.855Z,10.80
2019-01-20T11:19:22.358Z,10.47
2019-01-20T11:21:49.916Z,12.00
2019-01-20T11:24:17.495Z,12.00
2019-01-20T11:26:45.042Z,10.47
2019-01-20T11:29:12.505Z,9.67
2019-01-20T11:31:40.032Z,10.47
2019-01-20T11:34:07.487Z,9.80
2019-01-20T11:36:34.957Z,10.60
2019-01-20T11:39:04.312Z,13.93
2019-01-20T11:41:31.803Z,14.17
2019-01-20T11:43:59.283Z,12.47
2019-01-20T11:46:26.774Z,11.90
2019-01-20T11:48:54.268Z,10.70
2019-01-20T11:51:21.759Z,12.07
2019-01-20T11:53:49.325Z,11.97
2019-01-20T11:56:16.825Z,12.43
2019-01-20T11:58:44.305Z,12.97
2019-01-20T12:01:11.845Z,13.17
2019-01-20T12:03:39.353Z,14.37
2019-01-20T12:06:06.900Z,11.70
2019-01-20T12:08:34.453Z,12.60
2019-01-20T12:11:01.941Z,14.33
2019-01-20T12:13:29.611Z,13.00
2019-01-20T12:15:57.123Z,13.80
2019-01-20T12:18:24.745Z,13.03
2019-01-20T12:20:52.235Z,14.07
2019-01-20T12:23:19.700Z,12.33
2019-01-20T12:25:47.274Z,13.30
2019-01-20T12:28:14.824Z,12.57
2019-01-20T12:30:42.325Z,14.30
2019-01-20T12:33:09.874Z,13.50
2019-01-20T12:35:37.426Z,13.70
2019-01-20T12:38:04.927Z,13.40
2019-01-20T12:40:33.895Z,11.97
2019-01-20T12:43:01.384Z,12.57
2019-01-20T12:45:29.047Z,12.67
2019-01-20T12:47:56.547Z,12.50
2019-01-20T12:50:24.054Z,13.43
2019-01-20T12:52:51.613Z,12.53
2019-01-20T12:55:19.163Z,13.53
2019-01-20T12:57:46.678Z,12.60
2019-01-20T13:00:20.401Z,13.20
2019-01-20T13:02:48.124Z,11.80
2019-01-20T13:05:15.661Z,12.97
2019-01-20T13:07:43.513Z,13.07
2019-01-20T13:10:12.480Z,12.10
2019-01-20T13:12:39.987Z,12.93
2019-01-20T13:15:09.028Z,11.03
2019-01-20T13:17:36.572Z,12.70
2019-01-20T13:20:05.768Z,12.70
2019-01-20T13:22:33.364Z,12.57
2019-01-20T13:25:00.845Z,11.70
2019-01-20T13:27:28.408Z,12.10
2019-01-20T13:29:55.911Z,11.73
2019-01-20T13:32:23.385Z,12.30
2019-01-20T13:34:50.936Z,12.33
2019-01-20T13:37:18.480Z,11.40
2019-01-20T13:39:46.044Z,13.97
2019-01-20T13:42:13.617Z,12.20
2019-01-20T13:44:46.183Z,12.40
2019-01-20T13:47:10.328Z,12.40
2019-01-20T13:49:37.893Z,12.00
2019-01-20T13:52:05.564Z,11.43
2019-01-20T13:54:33.041Z,10.93
2019-01-20T13:57:00.596Z,11.50
2019-01-20T13:59:28.189Z,12.57
2019-01-20T14:01:55.757Z,12.57
2019-01-20T14:04:23.232Z,13.23
2019-01-20T14:06:50.793Z,12.20
2019-01-20T14:09:18.322Z,12.90
2019-01-20T14:11:48.687Z,13.00
2019-01-20T14:14:16.414Z,12.43
2019-01-20T14:16:43.969Z,12.70
2019-01-20T14:19:11.434Z,13.43
2019-01-20T14:21:38.934Z,12.93
2019-01-20T14:24:06.472Z,12.80
2019-01-20T14:26:34.001Z,12.80
2019-01-20T14:29:01.594Z,12.90
2019-01-20T14:31:29.086Z,14.13
2019-01-20T14:33:56.584Z,13.33
2019-01-20T14:36:24.172Z,12.67
2019-01-20T14:38:51.671Z,12.43
2019-01-20T14:41:19.152Z,13.20
2019-01-20T14:43:46.667Z,12.67
2019-01-20T14:46:14.222Z,12.80
2019-01-20T14:48:41.693Z,12.40
2019-01-20T14:51:09.290Z,13.03
2019-01-20T14:53:36.774Z,13.10
2019-01-20T14:56:04.449Z,13.63
2019-01-20T14:58:32.024Z,11.90
2019-01-20T15:00:59.556Z,12.90
2019-01-20T15:03:27.025Z,11.83
2019-01-20T15:05:54.550Z,11.60
2019-01-20T15:08:22.046Z,10.87
2019-01-20T15:10:49.558Z,12.00
2019-01-20T15:13:17.057Z,11.80
2019-01-20T15:15:44.603Z,11.83
2019-01-20T15:18:12.109Z,11.83
2019-01-20T15:20:39.830Z,13.53
2019-01-20T15:23:07.444Z,11.63
2019-01-20T15:25:34.882Z,11.17
2019-01-20T15:28:02.402Z,12.93
2019-01-20T15:30:31.042Z,12.93
2019-01-20T15:32:59.014Z,10.90
2019-01-20T15:35:26.572Z,12.90
2019-01-20T15:37:54.163Z,11.47
2019-01-20T15:40:22.741Z,14.57
2019-01-20T15:42:50.285Z,13.83
2019-01-20T15:45:18.813Z,12.57
2019-01-20T15:47:46.329Z,11.83
2019-01-20T15:50:18.121Z,12.60
2019-01-20T15:52:45.675Z,12.10
2019-01-20T15:55:13.220Z,12.10
2019-01-20T15:57:40.708Z,13.10
2019-01-20T16:00:09.657Z,12.67
2019-01-20T16:02:37.172Z,11.80
2019-01-20T16:05:05.741Z,12.07
2019-01-20T16:07:33.306Z,11.60
2019-01-20T16:10:00.839Z,11.53
2019-01-20T16:12:28.296Z,11.13
2019-01-20T16:14:55.875Z,10.23
2019-01-20T16:17:23.702Z,11.53
2019-01-20T16:19:51.185Z,12.57
2019-01-20T16:22:18.679Z,11.90
2019-01-20T16:24:46.204Z,11.73
2019-01-20T16:27:14.041Z,12.30
2019-01-20T16:29:41.567Z,12.50
2019-01-20T16:32:09.035Z,12.47
2019-01-20T16:34:36.497Z,14.50
2019-01-20T16:37:04.026Z,12.80
2019-01-20T16:39:31.491Z,12.73
2019-01-20T16:41:58.983Z,14.13
2019-01-20T16:44:26.500Z,13.73
2019-01-20T16:46:53.976Z,12.67
2019-01-20T16:49:21.445Z,13.03
2019-01-20T16:52:08.175Z,15.93
2019-01-20T16:54:54.160Z,14.27
2019-01-20T16:57:40.539Z,14.50
2019-01-20T17:00:08.083Z,15.63
2019-01-20T17:02:35.581Z,17.10
2019-01-20T17:05:03.338Z,14.80
2019-01-20T17:07:30.880Z,15.33
2019-01-20T17:09:58.399Z,15.93
2019-01-20T17:12:25.952Z,13.93
2019-01-20T17:14:53.434Z,16.07
2019-01-20T17:17:20.973Z,15.93
2019-01-20T17:19:48.523Z,15.47
2019-01-20T17:22:16.010Z,17.00
2019-01-20T17:24:43.504Z,17.17
2019-01-20T17:27:11.067Z,14.87
2019-01-20T17:29:38.559Z,16.60
2019-01-20T17:32:06.064Z,17.30
2019-01-20T17:34:33.568Z,16.70
2019-01-20T17:37:01.037Z,18.03
2019-01-20T17:39:28.620Z,17.27
2019-01-20T17:42:08.666Z,16.03
2019-01-20T17:44:36.822Z,16.75
2019-01-20T17:47:04.448Z,18.53
2019-01-20T17:49:32.018Z,18.07
2019-01-20T17:51:59.502Z,17.13
2019-01-20T17:54:27.036Z,18.20
2019-01-20T17:56:54.551Z,19.67
2019-01-20T17:59:22.148Z,17.82
2019-01-20T18:01:49.646Z,16.97
2019-01-20T18:04:17.125Z,18.80
2019-01-20T18:06:44.613Z,18.30
2019-01-20T18:09:12.196Z,18.47
2019-01-20T18:11:39.751Z,18.93
2019-01-20T18:14:07.474Z,17.10
2019-01-20T18:16:34.909Z,17.80
2019-01-20T18:19:02.413Z,18.77
2019-01-20T18:21:29.984Z,18.35
2019-01-20T18:23:57.467Z,20.00
2019-01-20T18:26:24.944Z,20.47
2019-01-20T18:28:52.541Z,19.05
2019-01-20T18:31:20.131Z,21.12
2019-01-20T18:33:47.705Z,20.95
2019-01-20T18:36:15.175Z,21.42
2019-01-20T18:38:42.681Z,19.27
2019-01-20T18:41:10.279Z,20.80
2019-01-20T18:43:37.763Z,21.65
2019-01-20T18:46:05.275Z,21.57
2019-01-20T18:48:32.792Z,20.77
2019-01-20T18:51:00.294Z,20.52
2019-01-20T18:53:27.773Z,22.65
2019-01-20T18:55:55.322Z,19.50
2019-01-20T18:58:22.818Z,21.23
2019-01-20T19:00:50.400Z,20.77
2019-01-20T19:03:17.990Z,21.60
2019-01-20T19:05:45.571Z,21.00
2019-01-20T19:08:15.193Z,22.35
2019-01-20T19:10:42.778Z,23.70
2019-01-20T19:13:10.346Z,22.52
2019-01-20T19:15:37.826Z,21.15
2019-01-20T19:18:05.464Z,23.52
2019-01-20T19:20:32.956Z,22.82
2019-01-20T19:23:00.529Z,21.60
2019-01-20T19:25:28.093Z,23.10
2019-01-20T19:27:55.657Z,22.50
2019-01-20T19:30:24.641Z,22.70
2019-01-20T19:32:52.138Z,23.40
2019-01-20T19:35:19.656Z,22.48
2019-01-20T19:37:47.281Z,23.10
2019-01-20T19:40:15.575Z,23.95
2019-01-20T19:42:43.121Z,24.27
2019-01-20T19:45:12.120Z,24.57
2019-01-20T19:47:39.713Z,23.87
2019-01-20T19:50:08.858Z,23.12
2019-01-20T19:52:36.472Z,23.60
2019-01-20T19:55:05.427Z,24.00
2019-01-20T19:57:32.979Z,25.40
2019-01-20T20:00:00.590Z,24.95
2019-01-20T20:02:28.208Z,24.60
2019-01-20T20:04:55.751Z,25.23
2019-01-20T20:07:23.266Z,23.25
2019-01-20T20:09:50.805Z,25.00
2019-01-20T20:12:18.294Z,23.73
2019-01-20T20:14:45.905Z,23.25
2019-01-20T20:17:13.461Z,23.70
2019-01-20T20:19:41.041Z,25.37
2019-01-20T20:22:08.693Z,23.42
2019-01-20T20:24:36.253Z,24.90
2019-01-20T20:27:03.752Z,22.95
2019-01-20T20:29:31.348Z,23.40
2019-01-20T20:31:58.867Z,23.73
2019-01-20T20:34:26.356Z,22.77
2019-01-20T20:36:53.984Z,23.10
2019-01-20T20:39:21.530Z,24.32
2019-01-20T20:41:49.158Z,23.05
2019-01-20T20:44:17.742Z,22.60
2019-01-20T20:46:45.380Z,23.70
2019-01-20T20:49:13.276Z,23.22
2019-01-20T20:51:41.877Z,22.30
2019-01-20T20:54:09.486Z,22.83
2019-01-20T20:56:36.989Z,22.85
2019-01-20T20:59:04.496Z,23.73
2019-01-20T21:01:32.064Z,23.25
2019-01-20T21:03:59.679Z,22.83
2019-01-20T21:06:27.169Z,24.53
2019-01-20T21:08:54.727Z,21.70
2019-01-20T21:11:22.199Z,20.90
2019-01-20T21:13:49.657Z,24.33
2019-01-20T21:16:17.177Z,21.37
2019-01-20T21:18:44.803Z,22.83
2019-01-20T21:21:12.241Z,24.20
2019-01-20T21:23:39.824Z,23.23
2019-01-20T21:26:07.328Z,22.13
2019-01-20T21:28:34.800Z,24.43
2019-01-20T21:31:02.398Z,26.13
2019-01-20T21:33:29.907Z,22.90
2019-01-20T21:35:57.364Z,21.87
2019-01-20T21:38:25.083Z,21.47
2019-01-20T21:40:52.580Z,24.87
2019-01-20T21:43:20.047Z,24.57
2019-01-20T21:45:47.563Z,24.13
2019-01-20T21:48:15.034Z,25.60
2019-01-20T21:50:42.597Z,24.60
2019-01-20T21:53:10.122Z,27.47
2019-01-20T21:55:37.601Z,26.00
2019-01-20T21:58:05.071Z,24.20
2019-01-20T22:00:32.583Z,23.97
2019-01-20T22:03:00.048Z,26.33
2019-01-20T22:05:27.527Z,23.67
2019-01-20T22:07:55.025Z,24.90
2019-01-20T22:10:23.183Z,26.80
2019-01-20T22:12:50.657Z,24.87
2019-01-20T22:15:18.179Z,25.87
2019-01-20T22:17:46.119Z,25.67
2019-01-20T22:20:14.604Z,27.30
2019-01-20T22:22:42.158Z,25.90
2019-01-20T22:25:10.233Z,26.03
2019-01-20T22:27:37.718Z,27.50
2019-01-20T22:30:06.760Z,27.63
2019-01-20T22:32:34.249Z,27.73
2019-01-20T22:35:01.747Z,27.70
2019-01-20T22:37:29.251Z,26.93
2019-01-20T22:39:56.729Z,28.67
2019-01-20T22:42:24.221Z,27.93
2019-01-20T22:44:51.702Z,28.27
2019-01-20T22:47:19.200Z,29.20
2019-01-20T22:49:46.705Z,30.10
2019-01-20T22:52:14.179Z,29.03
2019-01-20T22:54:41.661Z,30.77
2019-01-20T22:57:09.147Z,28.67
2019-01-20T22:59:36.619Z,27.67
2019-01-20T23:02:04.411Z,28.33
2019-01-20T23:04:31.907Z,27.77
2019-01-20T23:06:59.379Z,27.83
2019-01-20T23:09:26.851Z,28.20
2019-01-20T23:11:54.397Z,26.60
2019-01-20T23:14:21.946Z,29.00
2019-01-20T23:16:49.411Z,28.97
2019-01-20T23:19:16.988Z,28.70
2019-01-20T23:21:44.460Z,29.40
2019-01-20T23:24:11.939Z,27.40
2019-01-20T23:26:39.441Z,27.17
2019-01-20T23:29:06.981Z,31.13
2019-01-20T23:31:34.485Z,29.20
2019-01-20T23:34:01.960Z,28.93
2019-01-20T23:36:29.439Z,29.57
2019-01-20T23:38:56.939Z,28.23
2019-01-20T23:41:24.466Z,29.17
2019-01-20T23:43:51.958Z,27.27
2019-01-20T23:46:19.531Z,28.90
2019-01-20T23:48:47.073Z,28.60
2019-01-20T23:51:14.541Z,27.40
2019-01-20T23:53:42.113Z,28.03
2019-01-20T23:56:09.612Z,29.00
2019-01-20T23:58:37.080Z,27.70
